Gladstone, Alberta

Past 24 Hour Conditions

This table is a summary of hourly weather conditions for the past 24 hours. This summary includes the following parameters: temperature, humidity, dew point, wind speed and direction, air pressure, visibility and/or wind chill and humidex.
Date / Time
(MDT)
Conditions Temp (°C) Humidity (%) Dew Point (°C) Wind (km/h) Pressure (kPa) Visibility (km)
23 September 2014
12:00 N/A 20 52 10 14 N/A N/A
11:00 N/A 19 55 9 14 N/A N/A
10:00 N/A 17 60 9 14 N/A N/A
9:00 N/A 14 76 10 12 N/A N/A
8:00 N/A 13 81 10 9 N/A N/A
7:00 N/A 11 86 8 3 N/A N/A
6:00 N/A 12 81 9 11 N/A N/A
5:00 N/A 12 80 9 6 N/A N/A
4:00 N/A 11 86 8 6 N/A N/A
3:00 N/A 9   86 7 2 N/A N/A
2:00 N/A 9   84 6 4 N/A N/A
1:00 N/A 9   78 6 2 N/A N/A
00:00 N/A 12 67 6 7 N/A N/A
22 September 2014
23:00 N/A 11 71 6 2 N/A N/A
22:00 N/A 15 54 5 6 N/A N/A
21:00 N/A 15 54 6 2 N/A N/A
20:00 N/A 17 47 6 3 N/A N/A
19:00 N/A 23 33 5 3 N/A N/A
18:00 N/A 26 25 4 5 N/A N/A
17:00 N/A 28 20 3 7 N/A N/A
16:00 N/A 29 17 2 11 N/A N/A
15:00 N/A 30   17 2 14 N/A N/A
14:00 N/A 29 19 3 11 N/A N/A
13:00 N/A 28 22 4 11 N/A N/A
12:00 N/A 26 29 6 9 N/A N/A
N/A
Not available
 ↑ 
Highest temperature
 ↓ 
Lowest temperature

If you require additional historical weather information, please visit Climate Data Online.